Kamuela, Hawaii
Current Conditions -  °F | °C
As of 1:56 AM on Sunday 23 Nov 2014 (Local Time) from PHSF Reporting Station
Clear Clear  
Wind Chill: 40°   Ceiling: Unl
Heat Index: 43°   Visibility: 10mi
Dew Point: 35°   Wind: 6mph
Humidity: 74%   Direction: 120°ESE
Pressure: 30.34"   Gusts: NA
Location:  19.97°N, 155.78°W
Report Text: PHSF 231156Z AUTO 12005KT 10SM CLR 06/02 A3034 RMK AO2 SLP165 T00620019 10138 20058 57007 $
Loading
Personal Weather Stations






























Interactive Weather Map New forecast layout! Learn more

10-Day Weather Forecast

Advertisements
Track Severe Weather on mobile